Arlington, New York
Current Conditions -  °F | °C
As of 10:14 PM on Monday 26 Jan 2015 (Local Time) from KPOU Reporting Station
Light Snow Light Snow  
Wind Chill:   Ceiling: 2800
Heat Index: 19°   Visibility: 2mi
Dew Point: 14°   Wind: 12mph
Humidity: 81%   Direction: 360°N
Pressure: 29.86"   Gusts: NA
Location:  41.69°N, 73.89°W
Report Text: KPOU 270314Z AUTO 36010KT 2SM -SN OVC028 M07/M10 A2986 RMK AO2 P0000 T10721100 TSNO
Loading
Personal Weather Stations






























Interactive Weather Map New forecast layout! Learn more

10-Day Weather Forecast

Advertisements
Track Severe Weather on mobile